Ajo, AZ

7:36 AM MST on August 20, 2014 (GMT -0700)
KAZAJO2 | Change Station
CLOSE
Current Station
Personal Weather Station
Location: Ajo, AZ
Elevation: 1739 ft
Nearby Weather Stations

Elev 1739 ft 32.38 °N, 112.86 °W | Updated 49 seconds ago

Clear
Clear
78.1 °F
Feels Like 80 °F
N
6.0
Wind Variable Wind from SE
Gusts 6.0 mph

Today
High -- | Low -- °F
--% Chance of Precip.
Yesterday
High -- | Low -- °F
Precip. -- in
5:58 AM 7:10 PM
Waning Crescent, 21% visible
Pressure 29.84 in
Visibility 10.0 miles
Clouds Clear
Heat Index 80 °F
Dew Point 64 °F
Humidity 63%
Rainfall 0.00 in
Snow Depth Not available.
UV 1 out of 12
Pollen 4.30 out of 12
Air Quality Not available.
Flu Activity Not available.
METAR KGXF 201355Z 00000KT 10SM CLR 26/19 A2989 RMK SLP105 FIRST

More Conditions Fewer Conditions

Pressure 29.84 in
Visibility 10.0 miles
Clouds Clear
Heat Index 80 °F
Dew Point 64 °F
Humidity 63%
Rainfall 0.00 in
Snow Depth Not available.
UV 1 out of 12
Pollen 4.30 out of 12
Air Quality Not available.
Flu Activity Not available.
METAR KGXF 201355Z 00000KT 10SM CLR 26/19 A2989 RMK SLP105 FIRST

More Conditions Fewer Conditions

10-Day Weather Forecast

Almanac

Astronomy

Aug. 20, 2014 Rise Set
Actual Time 5:58 AM MST 7:10 PM MST
Civil Twilight 5:33 AM MST 7:35 PM MST
Nautical Twilight 5:02 AM MST 8:06 PM MST
Astronomical Twilight 4:31 AM MST 8:37 PM MST
Moon 1:47 AM MST 3:52 PM MST
Length of Visible Light 14h 02m
Length of Day
13h 11m
Tomorrow will be 1m 48s shorter.
Waning Crescent, 21% of the Moon is Illuminated
Today
Waning Crescent
Aug 25
New
Sep 2
First Quarter
Sep 8
Full
Sep 15
Last Quarter

Today's Extremes

State Highs State Lows

Community

WunderPhotos

Upload Photos

1,745,654 photos uploaded!

Nearby

Snow Depth

Station Depth Elevation
Workman Creek 2 in 6900 ft
Promontory 0 in 7930 ft
Heber 0 in 7640 ft
Mormon Mountain 0 in 7500 ft
White Horse Lake 0 in 7180 ft

Earthquake Activity

City Distance Mag. Time & Date
No recent earthquake activity has been reported nearby.
Minimum magnitude displayed is 2.5.

Coastal Water Temperatures

Place Temperature
No Stations Reporting

Nearby Weather Stations